sensor_id;sensor_type;location;lat;lon;timestamp;P1;durP1;ratioP1;P2;durP2;ratioP2
9445;SDS011;4761;49.490;10.908;2023-02-28T00:00:11;4.47;;;3.47;;
9445;SDS011;4761;49.490;10.908;2023-02-28T00:02:38;5.33;;;3.87;;
9445;SDS011;4761;49.490;10.908;2023-02-28T00:05:08;6.03;;;4.13;;
9445;SDS011;4761;49.490;10.908;2023-02-28T00:07:35;4.70;;;3.40;;
9445;SDS011;4761;49.490;10.908;2023-02-28T00:10:01;5.00;;;3.67;;
9445;SDS011;4761;49.490;10.908;2023-02-28T00:12:28;3.90;;;3.50;;
9445;SDS011;4761;49.490;10.908;2023-02-28T00:14:53;4.10;;;3.33;;
9445;SDS011;4761;49.490;10.908;2023-02-28T00:17:19;3.60;;;3.17;;
9445;SDS011;4761;49.490;10.908;2023-02-28T00:19:50;4.23;;;3.23;;
9445;SDS011;4761;49.490;10.908;2023-02-28T00:22:16;4.87;;;3.40;;
9445;SDS011;4761;49.490;10.908;2023-02-28T00:24:44;3.90;;;3.00;;
9445;SDS011;4761;49.490;10.908;2023-02-28T00:27:10;3.03;;;2.73;;
9445;SDS011;4761;49.490;10.908;2023-02-28T00:29:36;3.63;;;2.93;;
9445;SDS011;4761;49.490;10.908;2023-02-28T00:32:03;3.63;;;2.83;;
9445;SDS011;4761;49.490;10.908;2023-02-28T00:34:29;3.97;;;2.93;;
9445;SDS011;4761;49.490;10.908;2023-02-28T00:36:54;3.50;;;2.60;;
9445;SDS011;4761;49.490;10.908;2023-02-28T00:39:20;3.33;;;2.83;;
9445;SDS011;4761;49.490;10.908;2023-02-28T00:41:45;3.47;;;2.60;;
9445;SDS011;4761;49.490;10.908;2023-02-28T00:44:11;2.90;;;2.50;;
9445;SDS011;4761;49.490;10.908;2023-02-28T00:46:36;3.30;;;2.23;;
9445;SDS011;4761;49.490;10.908;2023-02-28T00:49:02;2.83;;;2.30;;
9445;SDS011;4761;49.490;10.908;2023-02-28T00:51:28;2.70;;;2.30;;
9445;SDS011;4761;49.490;10.908;2023-02-28T00:53:53;2.93;;;2.30;;
9445;SDS011;4761;49.490;10.908;2023-02-28T00:56:19;2.80;;;2.37;;
9445;SDS011;4761;49.490;10.908;2023-02-28T00:58:44;2.33;;;2.13;;
9445;SDS011;4761;49.490;10.908;2023-02-28T01:01:10;4.07;;;2.50;;
9445;SDS011;4761;49.490;10.908;2023-02-28T01:03:35;2.60;;;2.10;;
9445;SDS011;4761;49.490;10.908;2023-02-28T01:06:01;2.20;;;2.00;;
9445;SDS011;4761;49.490;10.908;2023-02-28T01:08:27;3.27;;;1.97;;
9445;SDS011;4761;49.490;10.908;2023-02-28T01:10:52;2.10;;;1.90;;
9445;SDS011;4761;49.490;10.908;2023-02-28T01:13:19;3.07;;;2.20;;
9445;SDS011;4761;49.490;10.908;2023-02-28T01:15:46;2.80;;;2.33;;
9445;SDS011;4761;49.490;10.908;2023-02-28T01:18:15;2.30;;;1.87;;
9445;SDS011;4761;49.490;10.908;2023-02-28T01:20:41;1.90;;;1.70;;
9445;SDS011;4761;49.490;10.908;2023-02-28T01:23:07;2.10;;;1.80;;
9445;SDS011;4761;49.490;10.908;2023-02-28T01:25:34;2.30;;;1.83;;
9445;SDS011;4761;49.490;10.908;2023-02-28T01:28:00;2.37;;;2.00;;
9445;SDS011;4761;49.490;10.908;2023-02-28T01:30:25;2.97;;;2.20;;
9445;SDS011;4761;49.490;10.908;2023-02-28T01:32:51;2.53;;;2.00;;
9445;SDS011;4761;49.490;10.908;2023-02-28T01:35:18;2.00;;;1.80;;
9445;SDS011;4761;49.490;10.908;2023-02-28T01:37:44;2.83;;;2.00;;
9445;SDS011;4761;49.490;10.908;2023-02-28T01:40:10;2.13;;;1.90;;
9445;SDS011;4761;49.490;10.908;2023-02-28T01:42:36;2.23;;;1.80;;
9445;SDS011;4761;49.490;10.908;2023-02-28T01:47:45;2.00;;;1.50;;
9445;SDS011;4761;49.490;10.908;2023-02-28T01:50:14;1.63;;;1.53;;
9445;SDS011;4761;49.490;10.908;2023-02-28T01:52:45;2.80;;;1.90;;
9445;SDS011;4761;49.490;10.908;2023-02-28T01:55:12;2.57;;;2.00;;
9445;SDS011;4761;49.490;10.908;2023-02-28T01:57:42;2.77;;;2.10;;
9445;SDS011;4761;49.490;10.908;2023-02-28T02:00:13;2.17;;;1.77;;
9445;SDS011;4761;49.490;10.908;2023-02-28T02:02:42;1.97;;;1.73;;
9445;SDS011;4761;49.490;10.908;2023-02-28T02:05:12;1.90;;;1.70;;
9445;SDS011;4761;49.490;10.908;2023-02-28T02:07:41;1.93;;;1.70;;
9445;SDS011;4761;49.490;10.908;2023-02-28T02:10:16;1.90;;;1.70;;
9445;SDS011;4761;49.490;10.908;2023-02-28T02:13:12;1.63;;;1.53;;
9445;SDS011;4761;49.490;10.908;2023-02-28T02:18:27;1.80;;;1.57;;
9445;SDS011;4761;49.490;10.908;2023-02-28T02:35:14;2.27;;;1.80;;
9445;SDS011;4761;49.490;10.908;2023-02-28T02:37:50;2.27;;;1.60;;
9445;SDS011;4761;49.490;10.908;2023-02-28T02:40:35;1.90;;;1.60;;
9445;SDS011;4761;49.490;10.908;2023-02-28T02:43:13;1.77;;;1.53;;
9445;SDS011;4761;49.490;10.908;2023-02-28T02:45:47;1.70;;;1.60;;
9445;SDS011;4761;49.490;10.908;2023-02-28T02:48:30;2.10;;;1.60;;
9445;SDS011;4761;49.490;10.908;2023-02-28T02:50:59;2.10;;;1.90;;
9445;SDS011;4761;49.490;10.908;2023-02-28T02:53:32;1.50;;;1.30;;
9445;SDS011;4761;49.490;10.908;2023-02-28T02:56:03;1.87;;;1.70;;
9445;SDS011;4761;49.490;10.908;2023-02-28T02:58:31;2.33;;;1.80;;
9445;SDS011;4761;49.490;10.908;2023-02-28T03:01:07;1.67;;;1.30;;
9445;SDS011;4761;49.490;10.908;2023-02-28T03:03:35;1.70;;;1.60;;
9445;SDS011;4761;49.490;10.908;2023-02-28T03:06:01;1.80;;;1.60;;
9445;SDS011;4761;49.490;10.908;2023-02-28T03:08:29;2.27;;;1.70;;
9445;SDS011;4761;49.490;10.908;2023-02-28T03:10:59;2.30;;;1.60;;
9445;SDS011;4761;49.490;10.908;2023-02-28T03:24:11;2.40;;;1.73;;
9445;SDS011;4761;49.490;10.908;2023-02-28T03:26:47;2.63;;;1.80;;
9445;SDS011;4761;49.490;10.908;2023-02-28T03:29:22;1.73;;;1.63;;
9445;SDS011;4761;49.490;10.908;2023-02-28T03:32:05;2.10;;;1.87;;
9445;SDS011;4761;49.490;10.908;2023-02-28T03:34:45;2.40;;;1.77;;
9445;SDS011;4761;49.490;10.908;2023-02-28T03:37:16;1.90;;;1.63;;
9445;SDS011;4761;49.490;10.908;2023-02-28T03:39:46;1.90;;;1.63;;
9445;SDS011;4761;49.490;10.908;2023-02-28T03:42:22;2.50;;;1.80;;
9445;SDS011;4761;49.490;10.908;2023-02-28T03:44:52;1.73;;;1.60;;
9445;SDS011;4761;49.490;10.908;2023-02-28T03:49:52;2.13;;;1.87;;
9445;SDS011;4761;49.490;10.908;2023-02-28T03:52:22;2.60;;;1.80;;
9445;SDS011;4761;49.490;10.908;2023-02-28T03:54:52;1.90;;;1.47;;
9445;SDS011;4761;49.490;10.908;2023-02-28T03:57:24;1.70;;;1.60;;
9445;SDS011;4761;49.490;10.908;2023-02-28T04:00:06;2.13;;;1.60;;
9445;SDS011;4761;49.490;10.908;2023-02-28T04:02:39;2.50;;;1.77;;
9445;SDS011;4761;49.490;10.908;2023-02-28T04:05:05;1.67;;;1.37;;
9445;SDS011;4761;49.490;10.908;2023-02-28T04:07:31;2.40;;;2.00;;
9445;SDS011;4761;49.490;10.908;2023-02-28T04:09:57;2.63;;;1.83;;
9445;SDS011;4761;49.490;10.908;2023-02-28T04:12:23;2.73;;;2.00;;
9445;SDS011;4761;49.490;10.908;2023-02-28T04:14:49;1.73;;;1.60;;
9445;SDS011;4761;49.490;10.908;2023-02-28T04:17:15;1.70;;;1.60;;
9445;SDS011;4761;49.490;10.908;2023-02-28T04:19:41;2.33;;;1.77;;
9445;SDS011;4761;49.490;10.908;2023-02-28T04:22:07;2.80;;;1.80;;
9445;SDS011;4761;49.490;10.908;2023-02-28T04:24:33;2.00;;;1.80;;
9445;SDS011;4761;49.490;10.908;2023-02-28T04:26:59;1.97;;;1.77;;
9445;SDS011;4761;49.490;10.908;2023-02-28T04:29:29;1.90;;;1.80;;
9445;SDS011;4761;49.490;10.908;2023-02-28T04:31:57;3.83;;;2.40;;
9445;SDS011;4761;49.490;10.908;2023-02-28T04:34:23;2.43;;;2.00;;
9445;SDS011;4761;49.490;10.908;2023-02-28T04:36:50;2.03;;;1.83;;
9445;SDS011;4761;49.490;10.908;2023-02-28T04:39:19;2.40;;;2.00;;
9445;SDS011;4761;49.490;10.908;2023-02-28T04:41:45;2.40;;;1.97;;
9445;SDS011;4761;49.490;10.908;2023-02-28T04:44:11;2.73;;;2.20;;
9445;SDS011;4761;49.490;10.908;2023-02-28T04:46:36;3.07;;;2.20;;
9445;SDS011;4761;49.490;10.908;2023-02-28T04:49:02;3.00;;;2.40;;
9445;SDS011;4761;49.490;10.908;2023-02-28T04:51:28;3.20;;;2.33;;
9445;SDS011;4761;49.490;10.908;2023-02-28T04:53:53;3.20;;;2.53;;
9445;SDS011;4761;49.490;10.908;2023-02-28T04:56:19;3.67;;;2.43;;
9445;SDS011;4761;49.490;10.908;2023-02-28T04:58:46;2.23;;;2.03;;
9445;SDS011;4761;49.490;10.908;2023-02-28T05:01:20;2.77;;;2.20;;
9445;SDS011;4761;49.490;10.908;2023-02-28T05:03:46;2.60;;;2.30;;
9445;SDS011;4761;49.490;10.908;2023-02-28T05:06:12;2.50;;;2.30;;
9445;SDS011;4761;49.490;10.908;2023-02-28T05:08:38;3.23;;;2.60;;
9445;SDS011;4761;49.490;10.908;2023-02-28T05:11:06;2.73;;;2.20;;
9445;SDS011;4761;49.490;10.908;2023-02-28T05:13:36;3.13;;;2.40;;
9445;SDS011;4761;49.490;10.908;2023-02-28T05:16:02;3.70;;;2.60;;
9445;SDS011;4761;49.490;10.908;2023-02-28T05:18:27;3.33;;;2.50;;
9445;SDS011;4761;49.490;10.908;2023-02-28T05:20:53;2.87;;;2.10;;
9445;SDS011;4761;49.490;10.908;2023-02-28T05:23:19;3.03;;;2.20;;
9445;SDS011;4761;49.490;10.908;2023-02-28T05:25:46;2.20;;;2.00;;
9445;SDS011;4761;49.490;10.908;2023-02-28T05:28:12;2.77;;;1.90;;
9445;SDS011;4761;49.490;10.908;2023-02-28T05:30:37;3.03;;;2.10;;
9445;SDS011;4761;49.490;10.908;2023-02-28T05:33:03;2.77;;;2.40;;
9445;SDS011;4761;49.490;10.908;2023-02-28T05:35:28;2.53;;;2.10;;
9445;SDS011;4761;49.490;10.908;2023-02-28T05:37:54;3.07;;;2.43;;
9445;SDS011;4761;49.490;10.908;2023-02-28T05:40:19;3.20;;;2.67;;
9445;SDS011;4761;49.490;10.908;2023-02-28T05:42:45;4.13;;;2.70;;
9445;SDS011;4761;49.490;10.908;2023-02-28T05:45:11;2.50;;;2.30;;
9445;SDS011;4761;49.490;10.908;2023-02-28T05:47:36;3.83;;;2.60;;
9445;SDS011;4761;49.490;10.908;2023-02-28T05:50:02;4.40;;;2.50;;
9445;SDS011;4761;49.490;10.908;2023-02-28T05:52:28;3.10;;;2.70;;
9445;SDS011;4761;49.490;10.908;2023-02-28T05:54:57;2.40;;;2.20;;
9445;SDS011;4761;49.490;10.908;2023-02-28T05:57:22;2.90;;;1.93;;
9445;SDS011;4761;49.490;10.908;2023-02-28T05:59:48;2.43;;;2.23;;
9445;SDS011;4761;49.490;10.908;2023-02-28T06:02:15;2.77;;;2.20;;
9445;SDS011;4761;49.490;10.908;2023-02-28T06:04:42;3.10;;;2.40;;
9445;SDS011;4761;49.490;10.908;2023-02-28T06:07:08;3.03;;;2.00;;
9445;SDS011;4761;49.490;10.908;2023-02-28T06:09:34;2.67;;;2.27;;
9445;SDS011;4761;49.490;10.908;2023-02-28T06:12:00;5.47;;;4.90;;
9445;SDS011;4761;49.490;10.908;2023-02-28T06:14:28;6.47;;;5.17;;
9445;SDS011;4761;49.490;10.908;2023-02-28T06:16:56;5.03;;;4.47;;
9445;SDS011;4761;49.490;10.908;2023-02-28T06:19:22;6.20;;;5.60;;
9445;SDS011;4761;49.490;10.908;2023-02-28T06:21:50;7.00;;;5.07;;
9445;SDS011;4761;49.490;10.908;2023-02-28T06:24:17;5.30;;;4.63;;
9445;SDS011;4761;49.490;10.908;2023-02-28T06:26:47;4.83;;;4.33;;
9445;SDS011;4761;49.490;10.908;2023-02-28T06:29:13;4.93;;;4.37;;
9445;SDS011;4761;49.490;10.908;2023-02-28T06:31:41;5.10;;;4.60;;
9445;SDS011;4761;49.490;10.908;2023-02-28T06:34:08;5.23;;;4.40;;
9445;SDS011;4761;49.490;10.908;2023-02-28T06:36:36;5.63;;;4.43;;
9445;SDS011;4761;49.490;10.908;2023-02-28T06:39:02;5.07;;;4.57;;
9445;SDS011;4761;49.490;10.908;2023-02-28T06:41:27;5.80;;;4.80;;
9445;SDS011;4761;49.490;10.908;2023-02-28T06:43:53;6.10;;;5.27;;
9445;SDS011;4761;49.490;10.908;2023-02-28T06:46:19;4.57;;;4.17;;
9445;SDS011;4761;49.490;10.908;2023-02-28T06:48:45;6.07;;;4.30;;
9445;SDS011;4761;49.490;10.908;2023-02-28T06:51:15;6.70;;;4.73;;
9445;SDS011;4761;49.490;10.908;2023-02-28T06:53:42;4.97;;;4.43;;
9445;SDS011;4761;49.490;10.908;2023-02-28T06:56:09;5.10;;;4.20;;
9445;SDS011;4761;49.490;10.908;2023-02-28T06:58:36;7.47;;;6.57;;
9445;SDS011;4761;49.490;10.908;2023-02-28T07:01:04;4.30;;;3.60;;
9445;SDS011;4761;49.490;10.908;2023-02-28T07:03:30;5.83;;;4.40;;
9445;SDS011;4761;49.490;10.908;2023-02-28T07:05:56;5.40;;;4.87;;
9445;SDS011;4761;49.490;10.908;2023-02-28T07:08:22;6.70;;;4.87;;
9445;SDS011;4761;49.490;10.908;2023-02-28T07:10:51;5.30;;;4.80;;
9445;SDS011;4761;49.490;10.908;2023-02-28T07:13:17;4.77;;;4.27;;
9445;SDS011;4761;49.490;10.908;2023-02-28T07:15:43;5.30;;;4.80;;
9445;SDS011;4761;49.490;10.908;2023-02-28T07:18:08;6.30;;;4.60;;
9445;SDS011;4761;49.490;10.908;2023-02-28T07:20:34;5.47;;;4.70;;
9445;SDS011;4761;49.490;10.908;2023-02-28T07:23:00;4.77;;;4.30;;
9445;SDS011;4761;49.490;10.908;2023-02-28T07:25:26;5.53;;;4.63;;
9445;SDS011;4761;49.490;10.908;2023-02-28T07:27:53;5.43;;;4.67;;
9445;SDS011;4761;49.490;10.908;2023-02-28T07:30:19;5.47;;;4.80;;
9445;SDS011;4761;49.490;10.908;2023-02-28T07:32:45;5.27;;;4.67;;
9445;SDS011;4761;49.490;10.908;2023-02-28T07:35:11;5.30;;;4.80;;
9445;SDS011;4761;49.490;10.908;2023-02-28T07:37:37;7.17;;;6.40;;
9445;SDS011;4761;49.490;10.908;2023-02-28T07:40:07;5.53;;;5.03;;
9445;SDS011;4761;49.490;10.908;2023-02-28T07:42:34;5.17;;;4.67;;
9445;SDS011;4761;49.490;10.908;2023-02-28T07:45:00;7.47;;;6.77;;
9445;SDS011;4761;49.490;10.908;2023-02-28T07:47:26;9.27;;;8.20;;
9445;SDS011;4761;49.490;10.908;2023-02-28T07:49:53;10.63;;;9.63;;
9445;SDS011;4761;49.490;10.908;2023-02-28T07:52:19;7.60;;;6.90;;
9445;SDS011;4761;49.490;10.908;2023-02-28T07:54:44;5.87;;;5.17;;
9445;SDS011;4761;49.490;10.908;2023-02-28T07:57:10;6.00;;;5.40;;
9445;SDS011;4761;49.490;10.908;2023-02-28T07:59:35;6.20;;;5.60;;
9445;SDS011;4761;49.490;10.908;2023-02-28T08:02:01;3.23;;;2.93;;
9445;SDS011;4761;49.490;10.908;2023-02-28T08:04:26;3.57;;;3.27;;
9445;SDS011;4761;49.490;10.908;2023-02-28T08:06:52;3.50;;;3.20;;
9445;SDS011;4761;49.490;10.908;2023-02-28T08:09:18;3.60;;;3.30;;
9445;SDS011;4761;49.490;10.908;2023-02-28T08:11:44;3.80;;;3.30;;
9445;SDS011;4761;49.490;10.908;2023-02-28T08:14:10;4.00;;;3.53;;
9445;SDS011;4761;49.490;10.908;2023-02-28T08:16:35;4.07;;;3.47;;
9445;SDS011;4761;49.490;10.908;2023-02-28T08:19:01;4.63;;;3.83;;
9445;SDS011;4761;49.490;10.908;2023-02-28T08:21:26;3.67;;;3.37;;
9445;SDS011;4761;49.490;10.908;2023-02-28T08:23:52;3.93;;;3.53;;
9445;SDS011;4761;49.490;10.908;2023-02-28T08:26:18;3.80;;;3.40;;
9445;SDS011;4761;49.490;10.908;2023-02-28T08:28:44;4.17;;;3.73;;
9445;SDS011;4761;49.490;10.908;2023-02-28T08:31:10;3.90;;;3.50;;
9445;SDS011;4761;49.490;10.908;2023-02-28T08:33:38;4.00;;;3.50;;
9445;SDS011;4761;49.490;10.908;2023-02-28T08:36:04;3.97;;;3.60;;
9445;SDS011;4761;49.490;10.908;2023-02-28T08:38:31;3.20;;;2.90;;
9445;SDS011;4761;49.490;10.908;2023-02-28T08:40:57;3.90;;;3.50;;
9445;SDS011;4761;49.490;10.908;2023-02-28T08:43:24;3.67;;;3.20;;
9445;SDS011;4761;49.490;10.908;2023-02-28T08:45:52;3.67;;;3.27;;
9445;SDS011;4761;49.490;10.908;2023-02-28T08:48:18;5.50;;;3.67;;
9445;SDS011;4761;49.490;10.908;2023-02-28T08:50:45;3.83;;;3.43;;
9445;SDS011;4761;49.490;10.908;2023-02-28T08:53:19;3.67;;;3.33;;
9445;SDS011;4761;49.490;10.908;2023-02-28T08:55:45;4.07;;;3.40;;
9445;SDS011;4761;49.490;10.908;2023-02-28T08:58:10;5.10;;;3.30;;
9445;SDS011;4761;49.490;10.908;2023-02-28T09:00:36;4.40;;;3.30;;
9445;SDS011;4761;49.490;10.908;2023-02-28T09:03:02;3.53;;;3.03;;
9445;SDS011;4761;49.490;10.908;2023-02-28T09:05:28;3.53;;;3.23;;
9445;SDS011;4761;49.490;10.908;2023-02-28T09:07:54;3.73;;;3.10;;
9445;SDS011;4761;49.490;10.908;2023-02-28T09:10:20;3.83;;;3.10;;
9445;SDS011;4761;49.490;10.908;2023-02-28T09:12:45;4.47;;;3.87;;
9445;SDS011;4761;49.490;10.908;2023-02-28T09:15:11;4.03;;;3.57;;
9445;SDS011;4761;49.490;10.908;2023-02-28T09:17:37;3.70;;;3.40;;
9445;SDS011;4761;49.490;10.908;2023-02-28T09:20:03;4.30;;;3.70;;
9445;SDS011;4761;49.490;10.908;2023-02-28T09:22:30;4.27;;;3.10;;
9445;SDS011;4761;49.490;10.908;2023-02-28T09:24:55;3.97;;;3.40;;
9445;SDS011;4761;49.490;10.908;2023-02-28T09:27:21;4.13;;;3.20;;
9445;SDS011;4761;49.490;10.908;2023-02-28T09:29:46;3.63;;;3.23;;
9445;SDS011;4761;49.490;10.908;2023-02-28T09:32:12;4.10;;;3.10;;
9445;SDS011;4761;49.490;10.908;2023-02-28T09:34:37;3.57;;;3.03;;
9445;SDS011;4761;49.490;10.908;2023-02-28T09:37:03;3.70;;;3.23;;
9445;SDS011;4761;49.490;10.908;2023-02-28T09:39:29;4.33;;;3.30;;
9445;SDS011;4761;49.490;10.908;2023-02-28T09:41:54;3.93;;;3.43;;
9445;SDS011;4761;49.490;10.908;2023-02-28T09:47:14;3.43;;;3.13;;
9445;SDS011;4761;49.490;10.908;2023-02-28T09:49:49;4.00;;;3.10;;
9445;SDS011;4761;49.490;10.908;2023-02-28T09:52:17;4.10;;;3.37;;
9445;SDS011;4761;49.490;10.908;2023-02-28T09:54:45;3.43;;;3.00;;
9445;SDS011;4761;49.490;10.908;2023-02-28T10:02:45;3.77;;;3.33;;
9445;SDS011;4761;49.490;10.908;2023-02-28T10:05:18;4.17;;;3.27;;
9445;SDS011;4761;49.490;10.908;2023-02-28T10:07:53;3.50;;;3.07;;
9445;SDS011;4761;49.490;10.908;2023-02-28T10:10:47;3.87;;;3.10;;
9445;SDS011;4761;49.490;10.908;2023-02-28T10:15:59;4.10;;;3.23;;
9445;SDS011;4761;49.490;10.908;2023-02-28T10:18:51;4.07;;;3.13;;
9445;SDS011;4761;49.490;10.908;2023-02-28T10:21:28;3.63;;;3.13;;
9445;SDS011;4761;49.490;10.908;2023-02-28T10:26:56;3.20;;;2.87;;
9445;SDS011;4761;49.490;10.908;2023-02-28T10:29:27;4.20;;;3.03;;
9445;SDS011;4761;49.490;10.908;2023-02-28T10:31:56;3.23;;;2.90;;
9445;SDS011;4761;49.490;10.908;2023-02-28T10:34:23;3.27;;;2.80;;
9445;SDS011;4761;49.490;10.908;2023-02-28T10:36:49;3.23;;;2.90;;
9445;SDS011;4761;49.490;10.908;2023-02-28T10:39:58;3.47;;;3.00;;
9445;SDS011;4761;49.490;10.908;2023-02-28T10:42:22;4.43;;;3.33;;
9445;SDS011;4761;49.490;10.908;2023-02-28T10:47:32;3.70;;;2.70;;
9445;SDS011;4761;49.490;10.908;2023-02-28T10:49:59;3.17;;;2.80;;
9445;SDS011;4761;49.490;10.908;2023-02-28T10:52:32;3.10;;;2.80;;
9445;SDS011;4761;49.490;10.908;2023-02-28T10:57:46;4.17;;;3.07;;
9445;SDS011;4761;49.490;10.908;2023-02-28T11:00:16;3.30;;;3.00;;
9445;SDS011;4761;49.490;10.908;2023-02-28T11:02:47;3.17;;;2.80;;
9445;SDS011;4761;49.490;10.908;2023-02-28T11:05:33;3.73;;;3.13;;
9445;SDS011;4761;49.490;10.908;2023-02-28T11:08:12;3.73;;;3.00;;
9445;SDS011;4761;49.490;10.908;2023-02-28T11:10:43;3.43;;;2.93;;
9445;SDS011;4761;49.490;10.908;2023-02-28T11:13:21;3.67;;;2.73;;
9445;SDS011;4761;49.490;10.908;2023-02-28T11:15:56;3.23;;;2.93;;
9445;SDS011;4761;49.490;10.908;2023-02-28T11:18:27;3.80;;;2.73;;
9445;SDS011;4761;49.490;10.908;2023-02-28T11:21:22;3.43;;;2.90;;
9445;SDS011;4761;49.490;10.908;2023-02-28T11:23:52;4.03;;;3.10;;
9445;SDS011;4761;49.490;10.908;2023-02-28T11:26:42;4.37;;;3.40;;
9445;SDS011;4761;49.490;10.908;2023-02-28T11:29:17;3.30;;;2.83;;
9445;SDS011;4761;49.490;10.908;2023-02-28T11:34:27;3.40;;;3.00;;
9445;SDS011;4761;49.490;10.908;2023-02-28T11:36:54;4.37;;;3.00;;
9445;SDS011;4761;49.490;10.908;2023-02-28T11:39:23;3.80;;;2.77;;
9445;SDS011;4761;49.490;10.908;2023-02-28T11:50:13;4.13;;;2.87;;
9445;SDS011;4761;49.490;10.908;2023-02-28T12:01:24;3.87;;;3.10;;
9445;SDS011;4761;49.490;10.908;2023-02-28T12:04:25;4.07;;;3.20;;
9445;SDS011;4761;49.490;10.908;2023-02-28T12:07:00;3.03;;;2.73;;
9445;SDS011;4761;49.490;10.908;2023-02-28T12:10:00;3.23;;;2.93;;
9445;SDS011;4761;49.490;10.908;2023-02-28T12:13:03;3.30;;;3.00;;
9445;SDS011;4761;49.490;10.908;2023-02-28T12:15:44;4.00;;;3.07;;
9445;SDS011;4761;49.490;10.908;2023-02-28T12:18:27;3.00;;;2.70;;
9445;SDS011;4761;49.490;10.908;2023-02-28T12:21:14;4.03;;;2.70;;
9445;SDS011;4761;49.490;10.908;2023-02-28T12:24:08;4.17;;;3.03;;
9445;SDS011;4761;49.490;10.908;2023-02-28T12:26:46;4.30;;;3.00;;
9445;SDS011;4761;49.490;10.908;2023-02-28T12:31:56;3.57;;;2.90;;
9445;SDS011;4761;49.490;10.908;2023-02-28T12:34:46;3.80;;;2.97;;
9445;SDS011;4761;49.490;10.908;2023-02-28T12:37:17;3.83;;;3.10;;
9445;SDS011;4761;49.490;10.908;2023-02-28T12:39:55;3.20;;;2.87;;
9445;SDS011;4761;49.490;10.908;2023-02-28T12:42:31;3.77;;;2.93;;
9445;SDS011;4761;49.490;10.908;2023-02-28T12:45:03;3.87;;;3.43;;
9445;SDS011;4761;49.490;10.908;2023-02-28T12:47:34;3.80;;;2.93;;
9445;SDS011;4761;49.490;10.908;2023-02-28T12:52:35;4.03;;;2.87;;
9445;SDS011;4761;49.490;10.908;2023-02-28T12:55:13;4.30;;;3.27;;
9445;SDS011;4761;49.490;10.908;2023-02-28T13:00:36;3.50;;;2.90;;
9445;SDS011;4761;49.490;10.908;2023-02-28T13:03:10;3.03;;;2.73;;
9445;SDS011;4761;49.490;10.908;2023-02-28T13:05:49;4.63;;;3.23;;
9445;SDS011;4761;49.490;10.908;2023-02-28T13:09:04;4.43;;;3.27;;
9445;SDS011;4761;49.490;10.908;2023-02-28T13:11:31;3.80;;;3.10;;
9445;SDS011;4761;49.490;10.908;2023-02-28T13:14:03;3.57;;;2.87;;
9445;SDS011;4761;49.490;10.908;2023-02-28T13:16:47;4.17;;;3.00;;
9445;SDS011;4761;49.490;10.908;2023-02-28T13:19:17;3.70;;;3.13;;
9445;SDS011;4761;49.490;10.908;2023-02-28T13:21:45;3.33;;;3.00;;
9445;SDS011;4761;49.490;10.908;2023-02-28T13:24:13;3.27;;;2.97;;
9445;SDS011;4761;49.490;10.908;2023-02-28T13:29:34;3.50;;;3.07;;
9445;SDS011;4761;49.490;10.908;2023-02-28T13:35:34;4.27;;;3.10;;
9445;SDS011;4761;49.490;10.908;2023-02-28T13:55:36;3.87;;;3.30;;
9445;SDS011;4761;49.490;10.908;2023-02-28T13:58:08;4.10;;;3.37;;
9445;SDS011;4761;49.490;10.908;2023-02-28T14:03:57;3.47;;;3.00;;
9445;SDS011;4761;49.490;10.908;2023-02-28T14:06:51;3.30;;;2.77;;
9445;SDS011;4761;49.490;10.908;2023-02-28T14:09:25;3.60;;;2.90;;
9445;SDS011;4761;49.490;10.908;2023-02-28T14:15:01;3.60;;;3.00;;
9445;SDS011;4761;49.490;10.908;2023-02-28T14:17:30;3.77;;;3.13;;
9445;SDS011;4761;49.490;10.908;2023-02-28T14:19:56;3.93;;;2.93;;
9445;SDS011;4761;49.490;10.908;2023-02-28T14:22:42;4.30;;;3.23;;
9445;SDS011;4761;49.490;10.908;2023-02-28T14:25:30;3.60;;;3.27;;
9445;SDS011;4761;49.490;10.908;2023-02-28T14:28:19;3.70;;;3.03;;
9445;SDS011;4761;49.490;10.908;2023-02-28T14:31:15;3.43;;;3.00;;
9445;SDS011;4761;49.490;10.908;2023-02-28T14:36:47;3.93;;;2.87;;
9445;SDS011;4761;49.490;10.908;2023-02-28T14:39:16;3.67;;;3.07;;
9445;SDS011;4761;49.490;10.908;2023-02-28T14:41:45;3.23;;;2.73;;
9445;SDS011;4761;49.490;10.908;2023-02-28T14:44:16;3.63;;;2.83;;
9445;SDS011;4761;49.490;10.908;2023-02-28T14:46:46;3.37;;;3.07;;
9445;SDS011;4761;49.490;10.908;2023-02-28T14:49:17;3.00;;;2.73;;
9445;SDS011;4761;49.490;10.908;2023-02-28T14:51:45;4.10;;;2.70;;
9445;SDS011;4761;49.490;10.908;2023-02-28T14:54:13;3.13;;;2.83;;
9445;SDS011;4761;49.490;10.908;2023-02-28T14:56:41;4.03;;;3.10;;
9445;SDS011;4761;49.490;10.908;2023-02-28T14:59:27;3.67;;;3.20;;
9445;SDS011;4761;49.490;10.908;2023-02-28T15:04:43;4.17;;;3.40;;
9445;SDS011;4761;49.490;10.908;2023-02-28T15:07:16;4.10;;;3.00;;
9445;SDS011;4761;49.490;10.908;2023-02-28T15:09:42;3.40;;;2.90;;
9445;SDS011;4761;49.490;10.908;2023-02-28T15:12:07;3.97;;;3.20;;
9445;SDS011;4761;49.490;10.908;2023-02-28T15:14:39;3.50;;;3.00;;
9445;SDS011;4761;49.490;10.908;2023-02-28T15:17:11;3.30;;;2.90;;
9445;SDS011;4761;49.490;10.908;2023-02-28T15:19:48;3.93;;;3.10;;
9445;SDS011;4761;49.490;10.908;2023-02-28T15:22:17;3.37;;;2.70;;
9445;SDS011;4761;49.490;10.908;2023-02-28T15:24:49;4.17;;;3.07;;
9445;SDS011;4761;49.490;10.908;2023-02-28T15:27:20;3.53;;;3.10;;
9445;SDS011;4761;49.490;10.908;2023-02-28T15:29:49;3.50;;;3.00;;
9445;SDS011;4761;49.490;10.908;2023-02-28T15:32:29;3.10;;;2.80;;
9445;SDS011;4761;49.490;10.908;2023-02-28T15:34:56;3.97;;;3.20;;
9445;SDS011;4761;49.490;10.908;2023-02-28T15:40:16;3.43;;;2.87;;
9445;SDS011;4761;49.490;10.908;2023-02-28T15:45:48;3.20;;;2.90;;
9445;SDS011;4761;49.490;10.908;2023-02-28T15:48:22;3.70;;;3.17;;
9445;SDS011;4761;49.490;10.908;2023-02-28T15:50:56;4.23;;;3.17;;
9445;SDS011;4761;49.490;10.908;2023-02-28T15:54:12;3.63;;;3.13;;
9445;SDS011;4761;49.490;10.908;2023-02-28T15:56:24;3.73;;;2.90;;
9445;SDS011;4761;49.490;10.908;2023-02-28T15:58:56;3.60;;;3.10;;
9445;SDS011;4761;49.490;10.908;2023-02-28T16:01:35;3.87;;;3.20;;
9445;SDS011;4761;49.490;10.908;2023-02-28T16:04:06;2.97;;;2.60;;
9445;SDS011;4761;49.490;10.908;2023-02-28T16:06:42;4.90;;;3.20;;
9445;SDS011;4761;49.490;10.908;2023-02-28T16:09:11;3.50;;;3.20;;
9445;SDS011;4761;49.490;10.908;2023-02-28T16:11:43;4.07;;;2.80;;
9445;SDS011;4761;49.490;10.908;2023-02-28T16:14:12;4.20;;;3.20;;
9445;SDS011;4761;49.490;10.908;2023-02-28T16:16:44;3.73;;;3.20;;
9445;SDS011;4761;49.490;10.908;2023-02-28T16:19:11;3.77;;;3.37;;
9445;SDS011;4761;49.490;10.908;2023-02-28T16:21:37;4.33;;;2.90;;
9445;SDS011;4761;49.490;10.908;2023-02-28T16:24:02;3.90;;;3.30;;
9445;SDS011;4761;49.490;10.908;2023-02-28T16:26:28;3.83;;;3.30;;
9445;SDS011;4761;49.490;10.908;2023-02-28T16:28:53;5.40;;;3.40;;
9445;SDS011;4761;49.490;10.908;2023-02-28T16:31:20;3.63;;;3.10;;
9445;SDS011;4761;49.490;10.908;2023-02-28T16:33:46;3.83;;;3.10;;
9445;SDS011;4761;49.490;10.908;2023-02-28T16:36:18;3.80;;;3.10;;
9445;SDS011;4761;49.490;10.908;2023-02-28T16:38:46;4.57;;;3.20;;
9445;SDS011;4761;49.490;10.908;2023-02-28T16:41:12;4.17;;;3.57;;
9445;SDS011;4761;49.490;10.908;2023-02-28T16:43:44;3.63;;;3.10;;
9445;SDS011;4761;49.490;10.908;2023-02-28T16:46:11;3.53;;;2.97;;
9445;SDS011;4761;49.490;10.908;2023-02-28T16:48:37;3.97;;;3.30;;
9445;SDS011;4761;49.490;10.908;2023-02-28T16:51:05;4.30;;;3.20;;
9445;SDS011;4761;49.490;10.908;2023-02-28T16:53:40;5.70;;;2.90;;
9445;SDS011;4761;49.490;10.908;2023-02-28T16:56:10;3.63;;;3.00;;
9445;SDS011;4761;49.490;10.908;2023-02-28T16:58:46;3.23;;;2.93;;
9445;SDS011;4761;49.490;10.908;2023-02-28T17:01:12;3.20;;;2.83;;
9445;SDS011;4761;49.490;10.908;2023-02-28T17:03:38;4.80;;;3.40;;
9445;SDS011;4761;49.490;10.908;2023-02-28T17:06:05;4.40;;;3.43;;
9445;SDS011;4761;49.490;10.908;2023-02-28T17:08:34;3.90;;;3.10;;
9445;SDS011;4761;49.490;10.908;2023-02-28T17:11:00;4.77;;;3.30;;
9445;SDS011;4761;49.490;10.908;2023-02-28T17:13:27;6.87;;;3.47;;
9445;SDS011;4761;49.490;10.908;2023-02-28T17:15:53;3.60;;;3.20;;
9445;SDS011;4761;49.490;10.908;2023-02-28T17:18:19;3.30;;;3.00;;